sensor_id;sensor_type;location;lat;lon;timestamp;pressure;altitude;pressure_sealevel;temperature;humidity
5146;BME280;2591;48.144;15.152;2022-07-23T00:00:45;74400.72;;;-144.65;100.00
5146;BME280;2591;48.144;15.152;2022-07-23T00:03:17;74402.75;;;-144.65;100.00
5146;BME280;2591;48.144;15.152;2022-07-23T00:05:45;74406.81;;;-144.65;100.00
5146;BME280;2591;48.144;15.152;2022-07-23T00:08:15;74410.91;;;-144.65;100.00
5146;BME280;2591;48.144;15.152;2022-07-23T00:10:43;74414.97;;;-144.65;100.00
5146;BME280;2591;48.144;15.152;2022-07-23T00:13:13;74402.75;;;-144.65;100.00
5146;BME280;2591;48.144;15.152;2022-07-23T00:15:42;74398.69;;;-144.65;100.00
5146;BME280;2591;48.144;15.152;2022-07-23T00:18:10;74402.75;;;-144.65;100.00
5146;BME280;2591;48.144;15.152;2022-07-23T00:20:41;74408.88;;;-144.65;100.00
5146;BME280;2591;48.144;15.152;2022-07-23T00:23:09;74398.69;;;-144.65;99.31
5146;BME280;2591;48.144;15.152;2022-07-23T00:25:38;74382.38;;;-144.65;97.64
5146;BME280;2591;48.144;15.152;2022-07-23T00:28:07;74378.28;;;-144.65;97.00
5146;BME280;2591;48.144;15.152;2022-07-23T00:30:37;74396.63;;;-144.65;96.91
5146;BME280;2591;48.144;15.152;2022-07-23T00:33:07;74382.38;;;-144.65;96.71
5146;BME280;2591;48.144;15.152;2022-07-23T00:35:38;74374.22;;;-144.65;96.63
5146;BME280;2591;48.144;15.152;2022-07-23T00:38:11;74341.63;;;-144.65;94.97
5146;BME280;2591;48.144;15.152;2022-07-23T00:40:39;74319.19;;;-144.65;93.02
5146;BME280;2591;48.144;15.152;2022-07-23T00:43:07;74321.25;;;-144.65;92.84
5146;BME280;2591;48.144;15.152;2022-07-23T00:45:37;74319.19;;;-144.65;92.88
5146;BME280;2591;48.144;15.152;2022-07-23T00:48:06;74321.25;;;-144.65;92.51
5146;BME280;2591;48.144;15.152;2022-07-23T00:50:35;74313.09;;;-144.65;92.20
5146;BME280;2591;48.144;15.152;2022-07-23T00:53:05;74296.78;;;-144.65;91.37
5146;BME280;2591;48.144;15.152;2022-07-23T00:55:35;74292.72;;;-144.65;91.45
5146;BME280;2591;48.144;15.152;2022-07-23T00:58:04;74284.56;;;-144.65;91.30
5146;BME280;2591;48.144;15.152;2022-07-23T01:00:32;74276.41;;;-144.65;90.88
5146;BME280;2591;48.144;15.152;2022-07-23T01:03:02;74280.50;;;-144.65;91.19
5146;BME280;2591;48.144;15.152;2022-07-23T01:05:33;74272.34;;;-144.65;91.30
5146;BME280;2591;48.144;15.152;2022-07-23T01:08:05;74270.28;;;-144.65;92.10
5146;BME280;2591;48.144;15.152;2022-07-23T01:10:36;74268.25;;;-144.65;92.74
5146;BME280;2591;48.144;15.152;2022-07-23T01:13:07;74260.09;;;-144.65;93.99
5146;BME280;2591;48.144;15.152;2022-07-23T01:15:38;74243.81;;;-144.65;97.12
5146;BME280;2591;48.144;15.152;2022-07-23T01:18:08;74192.88;;;-144.65;94.50
5146;BME280;2591;48.144;15.152;2022-07-23T01:20:37;74186.75;;;-144.65;93.90
5146;BME280;2591;48.144;15.152;2022-07-23T01:23:07;74207.13;;;-144.65;94.32
5146;BME280;2591;48.144;15.152;2022-07-23T01:25:36;74213.25;;;-144.65;94.73
5146;BME280;2591;48.144;15.152;2022-07-23T01:28:04;74223.44;;;-144.65;95.63
5146;BME280;2591;48.144;15.152;2022-07-23T01:30:32;74233.63;;;-144.65;96.32
5146;BME280;2591;48.144;15.152;2022-07-23T01:33:01;74237.69;;;-144.65;95.01
5146;BME280;2591;48.144;15.152;2022-07-23T01:35:34;74227.50;;;-144.65;93.17
5146;BME280;2591;48.144;15.152;2022-07-23T01:38:02;74219.34;;;-144.65;91.64
5146;BME280;2591;48.144;15.152;2022-07-23T01:40:32;74207.13;;;-144.65;91.57
5146;BME280;2591;48.144;15.152;2022-07-23T01:43:01;74213.25;;;-144.65;90.27
5146;BME280;2591;48.144;15.152;2022-07-23T01:45:32;74223.44;;;-144.65;89.06
5146;BME280;2591;48.144;15.152;2022-07-23T01:48:00;74205.09;;;-144.65;86.54
5146;BME280;2591;48.144;15.152;2022-07-23T01:50:42;74180.63;;;-144.65;85.81
5146;BME280;2591;48.144;15.152;2022-07-23T01:53:10;74178.59;;;-144.65;85.56
5146;BME280;2591;48.144;15.152;2022-07-23T01:55:41;74180.63;;;-144.65;85.69
5146;BME280;2591;48.144;15.152;2022-07-23T01:58:09;74198.97;;;-144.65;87.76
5146;BME280;2591;48.144;15.152;2022-07-23T02:00:38;74207.13;;;-144.65;87.94
5146;BME280;2591;48.144;15.152;2022-07-23T02:03:07;74203.06;;;-144.65;88.56
5146;BME280;2591;48.144;15.152;2022-07-23T02:05:36;74203.06;;;-144.65;87.52
5146;BME280;2591;48.144;15.152;2022-07-23T02:08:05;74198.97;;;-144.65;87.25
5146;BME280;2591;48.144;15.152;2022-07-23T02:10:33;74192.88;;;-144.65;87.14
5146;BME280;2591;48.144;15.152;2022-07-23T02:13:03;74176.56;;;-144.65;83.51
5146;BME280;2591;48.144;15.152;2022-07-23T02:15:33;74186.75;;;-144.65;81.26
5146;BME280;2591;48.144;15.152;2022-07-23T02:18:03;74203.06;;;-144.65;80.74
5146;BME280;2591;48.144;15.152;2022-07-23T02:20:33;74217.31;;;-144.65;79.33
5146;BME280;2591;48.144;15.152;2022-07-23T02:23:05;74215.28;;;-144.65;78.29
5146;BME280;2591;48.144;15.152;2022-07-23T02:25:34;74223.44;;;-144.65;78.41
5146;BME280;2591;48.144;15.152;2022-07-23T02:28:05;74239.72;;;-144.65;77.38
5146;BME280;2591;48.144;15.152;2022-07-23T02:30:35;74256.03;;;-144.65;75.84
5146;BME280;2591;48.144;15.152;2022-07-23T02:33:04;74260.09;;;-144.65;75.02
5146;BME280;2591;48.144;15.152;2022-07-23T02:35:32;74284.56;;;-144.65;73.66
5146;BME280;2591;48.144;15.152;2022-07-23T02:38:03;74280.50;;;-144.65;74.16
5146;BME280;2591;48.144;15.152;2022-07-23T02:40:33;74280.50;;;-144.65;74.57
5146;BME280;2591;48.144;15.152;2022-07-23T02:43:03;74292.72;;;-144.65;74.57
5146;BME280;2591;48.144;15.152;2022-07-23T02:45:35;74302.91;;;-144.65;74.43
5146;BME280;2591;48.144;15.152;2022-07-23T02:48:04;74313.09;;;-144.65;74.22
5146;BME280;2591;48.144;15.152;2022-07-23T02:50:32;74327.34;;;-144.65;75.23
5146;BME280;2591;48.144;15.152;2022-07-23T02:53:01;74333.47;;;-144.65;75.75
5146;BME280;2591;48.144;15.152;2022-07-23T02:55:31;74335.50;;;-144.65;75.90
5146;BME280;2591;48.144;15.152;2022-07-23T02:57:59;74337.53;;;-144.65;75.71
5146;BME280;2591;48.144;15.152;2022-07-23T03:00:27;74341.63;;;-144.65;75.98
5146;BME280;2591;48.144;15.152;2022-07-23T03:02:59;74357.91;;;-144.65;76.88
5146;BME280;2591;48.144;15.152;2022-07-23T03:05:30;74366.06;;;-144.65;77.20
5146;BME280;2591;48.144;15.152;2022-07-23T03:07:58;74374.22;;;-144.65;79.87
5146;BME280;2591;48.144;15.152;2022-07-23T03:10:27;74374.22;;;-144.65;81.15
5146;BME280;2591;48.144;15.152;2022-07-23T03:12:57;74386.44;;;-144.65;83.41
5146;BME280;2591;48.144;15.152;2022-07-23T03:15:26;74394.59;;;-144.65;84.02
5146;BME280;2591;48.144;15.152;2022-07-23T03:17:54;74402.75;;;-144.65;85.55
5146;BME280;2591;48.144;15.152;2022-07-23T03:20:24;74408.88;;;-144.65;87.85
5146;BME280;2591;48.144;15.152;2022-07-23T03:22:53;74410.91;;;-144.65;89.84
5146;BME280;2591;48.144;15.152;2022-07-23T03:25:21;74406.81;;;-144.65;90.43
5146;BME280;2591;48.144;15.152;2022-07-23T03:27:49;74423.13;;;-144.65;86.07
5146;BME280;2591;48.144;15.152;2022-07-23T03:30:18;74431.28;;;-144.65;85.66
5146;BME280;2591;48.144;15.152;2022-07-23T03:32:48;74439.44;;;-144.65;85.21
5146;BME280;2591;48.144;15.152;2022-07-23T03:35:16;74437.41;;;-144.65;85.21
5146;BME280;2591;48.144;15.152;2022-07-23T03:37:46;74441.47;;;-144.65;84.52
5146;BME280;2591;48.144;15.152;2022-07-23T03:40:17;74443.50;;;-144.65;84.77
5146;BME280;2591;48.144;15.152;2022-07-23T03:42:46;74447.59;;;-144.65;86.33
5146;BME280;2591;48.144;15.152;2022-07-23T03:45:14;74447.59;;;-144.65;87.36
5146;BME280;2591;48.144;15.152;2022-07-23T03:47:43;74451.66;;;-144.65;88.18
5146;BME280;2591;48.144;15.152;2022-07-23T03:50:13;74447.59;;;-144.65;89.25
5146;BME280;2591;48.144;15.152;2022-07-23T03:52:41;74447.59;;;-144.65;90.32
5146;BME280;2591;48.144;15.152;2022-07-23T03:55:11;74451.66;;;-144.65;91.20
5146;BME280;2591;48.144;15.152;2022-07-23T03:57:43;74461.84;;;-144.65;92.36
5146;BME280;2591;48.144;15.152;2022-07-23T04:00:12;74463.88;;;-144.65;93.74
5146;BME280;2591;48.144;15.152;2022-07-23T04:02:41;74459.81;;;-144.65;94.84
5146;BME280;2591;48.144;15.152;2022-07-23T04:05:11;74453.69;;;-144.65;95.76
5146;BME280;2591;48.144;15.152;2022-07-23T04:07:40;74451.66;;;-144.65;96.10
5146;BME280;2591;48.144;15.152;2022-07-23T04:10:09;74457.78;;;-144.65;95.84
5146;BME280;2591;48.144;15.152;2022-07-23T04:12:38;74459.81;;;-144.65;94.95
5146;BME280;2591;48.144;15.152;2022-07-23T04:15:09;74455.72;;;-144.65;93.65
5146;BME280;2591;48.144;15.152;2022-07-23T04:17:39;74443.50;;;-144.65;92.80
5146;BME280;2591;48.144;15.152;2022-07-23T04:20:09;74431.28;;;-144.65;91.99
5146;BME280;2591;48.144;15.152;2022-07-23T04:22:40;74427.22;;;-144.65;91.21
5146;BME280;2591;48.144;15.152;2022-07-23T04:25:10;74427.22;;;-144.65;89.69
5146;BME280;2591;48.144;15.152;2022-07-23T04:27:40;74423.13;;;-144.65;87.80
5146;BME280;2591;48.144;15.152;2022-07-23T04:30:10;74427.22;;;-144.65;84.79
5146;BME280;2591;48.144;15.152;2022-07-23T04:32:41;74443.50;;;-144.65;83.97
5146;BME280;2591;48.144;15.152;2022-07-23T04:35:09;74455.72;;;-144.65;82.69
5146;BME280;2591;48.144;15.152;2022-07-23T04:37:42;74467.97;;;-144.65;84.16
5146;BME280;2591;48.144;15.152;2022-07-23T04:40:12;74459.81;;;-144.65;85.65
5146;BME280;2591;48.144;15.152;2022-07-23T04:42:42;74459.81;;;-144.65;86.29
5146;BME280;2591;48.144;15.152;2022-07-23T04:45:11;74467.97;;;-144.65;86.48
5146;BME280;2591;48.144;15.152;2022-07-23T04:47:40;74472.03;;;-144.65;86.48
5146;BME280;2591;48.144;15.152;2022-07-23T04:50:09;74482.22;;;-144.65;85.84
5146;BME280;2591;48.144;15.152;2022-07-23T04:52:37;74488.34;;;-144.65;85.71
5146;BME280;2591;48.144;15.152;2022-07-23T04:55:06;74492.41;;;-144.65;87.35
5146;BME280;2591;48.144;15.152;2022-07-23T04:57:35;74492.41;;;-144.65;90.13
5146;BME280;2591;48.144;15.152;2022-07-23T05:00:06;74490.38;;;-144.65;90.39
5146;BME280;2591;48.144;15.152;2022-07-23T05:02:36;74480.19;;;-144.65;89.70
5146;BME280;2591;48.144;15.152;2022-07-23T05:05:07;74467.97;;;-144.65;89.02
5146;BME280;2591;48.144;15.152;2022-07-23T05:07:36;74461.84;;;-144.65;90.97
5146;BME280;2591;48.144;15.152;2022-07-23T05:10:04;74455.72;;;-144.65;92.60
5146;BME280;2591;48.144;15.152;2022-07-23T05:12:35;74453.69;;;-144.65;93.98
5146;BME280;2591;48.144;15.152;2022-07-23T05:15:06;74443.50;;;-144.65;94.15
5146;BME280;2591;48.144;15.152;2022-07-23T05:17:35;74433.31;;;-144.65;95.37
5146;BME280;2591;48.144;15.152;2022-07-23T05:20:06;74441.47;;;-144.65;98.19
5146;BME280;2591;48.144;15.152;2022-07-23T05:22:35;74431.28;;;-144.65;97.45
5146;BME280;2591;48.144;15.152;2022-07-23T05:25:04;74431.28;;;-144.65;97.35
5146;BME280;2591;48.144;15.152;2022-07-23T05:27:33;74429.25;;;-144.65;95.00
5146;BME280;2591;48.144;15.152;2022-07-23T05:30:03;74425.16;;;-144.65;93.99
5146;BME280;2591;48.144;15.152;2022-07-23T05:32:33;74410.91;;;-144.65;91.50
5146;BME280;2591;48.144;15.152;2022-07-23T05:35:05;74388.50;;;-144.65;89.28
5146;BME280;2591;48.144;15.152;2022-07-23T05:37:34;74386.44;;;-144.65;88.08
5146;BME280;2591;48.144;15.152;2022-07-23T05:40:05;74382.38;;;-144.65;87.47
5146;BME280;2591;48.144;15.152;2022-07-23T05:42:34;74378.28;;;-144.65;87.40
5146;BME280;2591;48.144;15.152;2022-07-23T05:45:06;74368.09;;;-144.65;86.76
5146;BME280;2591;48.144;15.152;2022-07-23T05:47:41;74362.00;;;-144.65;86.88
5146;BME280;2591;48.144;15.152;2022-07-23T05:50:10;74357.91;;;-144.65;85.60
5146;BME280;2591;48.144;15.152;2022-07-23T05:52:40;74359.97;;;-144.65;85.19
5146;BME280;2591;48.144;15.152;2022-07-23T05:55:09;74351.81;;;-144.65;84.83
5146;BME280;2591;48.144;15.152;2022-07-23T05:57:38;74347.72;;;-144.65;84.99
5146;BME280;2591;48.144;15.152;2022-07-23T06:00:08;74331.44;;;-144.65;85.60
5146;BME280;2591;48.144;15.152;2022-07-23T06:02:37;74321.25;;;-144.65;82.99
5146;BME280;2591;48.144;15.152;2022-07-23T06:05:09;74313.09;;;-144.65;82.71
5146;BME280;2591;48.144;15.152;2022-07-23T06:07:38;74298.81;;;-144.65;80.41
5146;BME280;2591;48.144;15.152;2022-07-23T06:10:11;74276.41;;;-144.65;80.06
5146;BME280;2591;48.144;15.152;2022-07-23T06:12:42;74278.44;;;-144.65;78.64
5146;BME280;2591;48.144;15.152;2022-07-23T06:15:10;74278.44;;;-144.65;75.97
5146;BME280;2591;48.144;15.152;2022-07-23T06:17:38;74268.25;;;-144.65;76.73
5146;BME280;2591;48.144;15.152;2022-07-23T06:20:10;74251.97;;;-144.65;76.85
5146;BME280;2591;48.144;15.152;2022-07-23T06:22:40;74237.69;;;-144.65;76.56
5146;BME280;2591;48.144;15.152;2022-07-23T06:25:09;74217.31;;;-144.65;75.40
5146;BME280;2591;48.144;15.152;2022-07-23T06:27:47;74205.09;;;-144.65;72.20
5146;BME280;2591;48.144;15.152;2022-07-23T06:30:17;74198.97;;;-144.65;72.80
5146;BME280;2591;48.144;15.152;2022-07-23T06:32:50;74188.78;;;-144.65;70.12
5146;BME280;2591;48.144;15.152;2022-07-23T06:35:23;74194.91;;;-144.65;70.30
5146;BME280;2591;48.144;15.152;2022-07-23T06:37:53;74190.81;;;-144.65;70.42
5146;BME280;2591;48.144;15.152;2022-07-23T06:40:21;74207.13;;;-144.65;71.29
5146;BME280;2591;48.144;15.152;2022-07-23T06:42:50;74194.91;;;-144.65;70.92
5146;BME280;2591;48.144;15.152;2022-07-23T06:45:18;74201.00;;;-144.65;69.88
5146;BME280;2591;48.144;15.152;2022-07-23T06:47:49;74203.06;;;-144.65;71.41
5146;BME280;2591;48.144;15.152;2022-07-23T06:50:18;74184.72;;;-144.65;70.54
5146;BME280;2591;48.144;15.152;2022-07-23T06:52:48;74170.44;;;-144.65;70.09
5146;BME280;2591;48.144;15.152;2022-07-23T06:55:17;74146.00;;;-144.65;70.45
5146;BME280;2591;48.144;15.152;2022-07-23T06:57:47;74125.63;;;-144.65;69.00
5146;BME280;2591;48.144;15.152;2022-07-23T07:00:17;74107.28;;;-144.65;67.26
5146;BME280;2591;48.144;15.152;2022-07-23T07:02:46;74101.16;;;-144.65;66.42
5146;BME280;2591;48.144;15.152;2022-07-23T07:05:15;74093.03;;;-144.65;65.79
5146;BME280;2591;48.144;15.152;2022-07-23T07:07:43;74074.69;;;-144.65;65.63
5146;BME280;2591;48.144;15.152;2022-07-23T07:10:15;74056.34;;;-144.65;63.91
5146;BME280;2591;48.144;15.152;2022-07-23T07:12:45;74050.22;;;-144.65;62.44
5146;BME280;2591;48.144;15.152;2022-07-23T07:15:13;74048.19;;;-144.65;62.65
5146;BME280;2591;48.144;15.152;2022-07-23T07:17:41;74050.22;;;-144.65;62.26
5146;BME280;2591;48.144;15.152;2022-07-23T07:20:10;74040.03;;;-144.65;61.82
5146;BME280;2591;48.144;15.152;2022-07-23T07:22:41;74054.31;;;-144.65;62.85
5146;BME280;2591;48.144;15.152;2022-07-23T07:25:10;74040.03;;;-144.65;63.01
5146;BME280;2591;48.144;15.152;2022-07-23T07:27:42;74046.16;;;-144.65;61.04
5146;BME280;2591;48.144;15.152;2022-07-23T07:30:14;74056.34;;;-144.65;62.29
5146;BME280;2591;48.144;15.152;2022-07-23T07:32:42;74056.34;;;-144.65;61.00
5146;BME280;2591;48.144;15.152;2022-07-23T07:35:27;74068.56;;;-144.65;60.12
5146;BME280;2591;48.144;15.152;2022-07-23T07:37:55;74058.38;;;-144.65;60.81
5146;BME280;2591;48.144;15.152;2022-07-23T07:40:24;74062.47;;;-144.65;62.01
5146;BME280;2591;48.144;15.152;2022-07-23T07:43:04;74021.72;;;-144.65;59.66
5146;BME280;2591;48.144;15.152;2022-07-23T07:45:33;74007.44;;;-144.65;61.81
5146;BME280;2591;48.144;15.152;2022-07-23T07:48:03;73948.34;;;-144.65;56.94
5146;BME280;2591;48.144;15.152;2022-07-23T07:50:33;73954.47;;;-144.65;56.94
5146;BME280;2591;48.144;15.152;2022-07-23T07:53:02;73950.41;;;-144.65;56.99
5146;BME280;2591;48.144;15.152;2022-07-23T07:55:31;73938.16;;;-144.65;56.57
5146;BME280;2591;48.144;15.152;2022-07-23T07:57:59;73897.41;;;-144.65;54.96
5146;BME280;2591;48.144;15.152;2022-07-23T08:00:32;73899.44;;;-144.65;54.89
5146;BME280;2591;48.144;15.152;2022-07-23T08:03:00;73913.72;;;-144.65;54.12
5146;BME280;2591;48.144;15.152;2022-07-23T08:05:30;73901.50;;;-144.65;54.08
5146;BME280;2591;48.144;15.152;2022-07-23T08:08:06;73907.59;;;-144.65;54.80
5146;BME280;2591;48.144;15.152;2022-07-23T08:10:36;73897.41;;;-144.65;54.32
5146;BME280;2591;48.144;15.152;2022-07-23T08:13:04;73883.16;;;-144.65;53.77
5146;BME280;2591;48.144;15.152;2022-07-23T08:15:33;73870.94;;;-144.65;55.26
5146;BME280;2591;48.144;15.152;2022-07-23T08:18:04;73824.06;;;-144.65;51.88
5146;BME280;2591;48.144;15.152;2022-07-23T08:20:32;73813.88;;;-144.65;51.97
5146;BME280;2591;48.144;15.152;2022-07-23T08:23:04;73820.00;;;-144.65;50.68
5146;BME280;2591;48.144;15.152;2022-07-23T08:25:34;73828.16;;;-144.65;50.14
5146;BME280;2591;48.144;15.152;2022-07-23T08:28:04;73832.22;;;-144.65;50.25
5146;BME280;2591;48.144;15.152;2022-07-23T08:30:36;73844.44;;;-144.65;50.90
5146;BME280;2591;48.144;15.152;2022-07-23T08:33:09;73836.28;;;-144.65;49.89
5146;BME280;2591;48.144;15.152;2022-07-23T08:36:03;73852.59;;;-144.65;51.07
5146;BME280;2591;48.144;15.152;2022-07-23T08:38:32;73820.00;;;-144.65;49.81
5146;BME280;2591;48.144;15.152;2022-07-23T08:41:02;73811.84;;;-144.65;50.07
5146;BME280;2591;48.144;15.152;2022-07-23T08:43:32;73805.72;;;-144.65;48.91
5146;BME280;2591;48.144;15.152;2022-07-23T08:46:04;73830.19;;;-144.65;49.30
5146;BME280;2591;48.144;15.152;2022-07-23T08:48:35;73824.06;;;-144.65;48.57
5146;BME280;2591;48.144;15.152;2022-07-23T08:51:07;73832.22;;;-144.65;49.15
5146;BME280;2591;48.144;15.152;2022-07-23T08:53:40;73836.28;;;-144.65;48.78
5146;BME280;2591;48.144;15.152;2022-07-23T08:56:09;73834.25;;;-144.65;49.41
5146;BME280;2591;48.144;15.152;2022-07-23T08:58:37;73822.03;;;-144.65;48.61
5146;BME280;2591;48.144;15.152;2022-07-23T09:01:07;73807.78;;;-144.65;48.69
5146;BME280;2591;48.144;15.152;2022-07-23T09:03:36;73795.53;;;-144.65;48.45
5146;BME280;2591;48.144;15.152;2022-07-23T09:06:07;73775.16;;;-144.65;48.32
5146;BME280;2591;48.144;15.152;2022-07-23T09:08:38;73758.88;;;-144.65;48.58
5146;BME280;2591;48.144;15.152;2022-07-23T09:11:11;73762.94;;;-144.65;49.21
5146;BME280;2591;48.144;15.152;2022-07-23T09:13:42;73754.78;;;-144.65;48.49
5146;BME280;2591;48.144;15.152;2022-07-23T09:16:17;73718.13;;;-144.65;47.11
5146;BME280;2591;48.144;15.152;2022-07-23T09:18:48;73724.25;;;-144.65;48.65
5146;BME280;2591;48.144;15.152;2022-07-23T09:21:19;73689.59;;;-144.65;48.52
5146;BME280;2591;48.144;15.152;2022-07-23T09:23:51;73659.03;;;-144.65;47.40
5146;BME280;2591;48.144;15.152;2022-07-23T09:26:29;73644.78;;;-144.65;46.47
5146;BME280;2591;48.144;15.152;2022-07-23T09:29:01;73659.03;;;-144.65;46.96
5146;BME280;2591;48.144;15.152;2022-07-23T09:31:34;73642.75;;;-144.65;47.94
5146;BME280;2591;48.144;15.152;2022-07-23T09:34:08;73614.22;;;-144.65;46.22
5146;BME280;2591;48.144;15.152;2022-07-23T09:36:36;73620.34;;;-144.65;47.17
5146;BME280;2591;48.144;15.152;2022-07-23T09:39:06;73610.16;;;-144.65;46.16
5146;BME280;2591;48.144;15.152;2022-07-23T09:41:38;73618.28;;;-144.65;46.07
5146;BME280;2591;48.144;15.152;2022-07-23T09:44:10;73608.09;;;-144.65;45.10
5146;BME280;2591;48.144;15.152;2022-07-23T09:46:41;73581.63;;;-144.65;43.15
5146;BME280;2591;48.144;15.152;2022-07-23T09:49:12;73595.88;;;-144.65;42.69
5146;BME280;2591;48.144;15.152;2022-07-23T09:51:54;73624.41;;;-144.65;43.52
5146;BME280;2591;48.144;15.152;2022-07-23T09:54:28;73644.78;;;-144.65;44.14
5146;BME280;2591;48.144;15.152;2022-07-23T09:56:59;73626.44;;;-144.65;43.24
5146;BME280;2591;48.144;15.152;2022-07-23T09:59:31;73667.19;;;-144.65;44.60
5146;BME280;2591;48.144;15.152;2022-07-23T10:02:05;73675.34;;;-144.65;44.45
5146;BME280;2591;48.144;15.152;2022-07-23T10:04:33;73703.88;;;-144.65;45.47
5146;BME280;2591;48.144;15.152;2022-07-23T10:07:08;73683.50;;;-144.65;44.25
5146;BME280;2591;48.144;15.152;2022-07-23T10:09:39;73703.88;;;-144.65;44.61
5146;BME280;2591;48.144;15.152;2022-07-23T10:12:11;73744.59;;;-144.65;46.56
5146;BME280;2591;48.144;15.152;2022-07-23T10:14:48;73734.41;;;-144.65;46.37
5146;BME280;2591;48.144;15.152;2022-07-23T10:17:19;73720.16;;;-144.65;46.49
5146;BME280;2591;48.144;15.152;2022-07-23T10:19:47;73705.91;;;-144.65;45.91
5146;BME280;2591;48.144;15.152;2022-07-23T10:22:20;73705.91;;;-144.65;46.01
5146;BME280;2591;48.144;15.152;2022-07-23T10:24:58;73657.00;;;-144.65;45.95
5146;BME280;2591;48.144;15.152;2022-07-23T10:27:50;73634.59;;;-144.65;44.86
5146;BME280;2591;48.144;15.152;2022-07-23T10:30:29;73644.78;;;-144.65;44.75
5146;BME280;2591;48.144;15.152;2022-07-23T10:33:12;73726.28;;;-144.65;46.78
5146;BME280;2591;48.144;15.152;2022-07-23T10:35:50;73730.34;;;-144.65;46.14
5146;BME280;2591;48.144;15.152;2022-07-23T10:38:25;73775.16;;;-144.65;47.25
5146;BME280;2591;48.144;15.152;2022-07-23T10:40:56;73820.00;;;-144.65;49.44
5146;BME280;2591;48.144;15.152;2022-07-23T10:43:27;73803.69;;;-144.65;46.73
5146;BME280;2591;48.144;15.152;2022-07-23T10:49:25;73834.25;;;-144.65;46.76
5146;BME280;2591;48.144;15.152;2022-07-23T10:52:19;73877.03;;;-144.65;47.77
5146;BME280;2591;48.144;15.152;2022-07-23T10:54:52;73907.59;;;-144.65;49.44
5146;BME280;2591;48.144;15.152;2022-07-23T10:57:25;73919.84;;;-144.65;50.63
5146;BME280;2591;48.144;15.152;2022-07-23T11:02:52;73889.28;;;-144.65;49.31
5146;BME280;2591;48.144;15.152;2022-07-23T11:05:23;73885.19;;;-144.65;48.55
5146;BME280;2591;48.144;15.152;2022-07-23T11:08:24;73911.69;;;-144.65;49.77
5146;BME280;2591;48.144;15.152;2022-07-23T11:11:07;73905.56;;;-144.65;49.79
5146;BME280;2591;48.144;15.152;2022-07-23T11:13:55;73913.72;;;-144.65;50.90
5146;BME280;2591;48.144;15.152;2022-07-23T11:16:25;73911.69;;;-144.65;51.82
5146;BME280;2591;48.144;15.152;2022-07-23T11:19:05;73885.19;;;-144.65;51.35
5146;BME280;2591;48.144;15.152;2022-07-23T11:21:52;73840.38;;;-144.65;49.64
5146;BME280;2591;48.144;15.152;2022-07-23T11:24:23;73836.28;;;-144.65;50.36
5146;BME280;2591;48.144;15.152;2022-07-23T11:27:09;73789.44;;;-144.65;48.89
5146;BME280;2591;48.144;15.152;2022-07-23T11:29:45;73750.72;;;-144.65;47.81
5146;BME280;2591;48.144;15.152;2022-07-23T11:32:30;73699.78;;;-144.65;46.77
5146;BME280;2591;48.144;15.152;2022-07-23T11:35:00;73701.81;;;-144.65;47.68
5146;BME280;2591;48.144;15.152;2022-07-23T11:37:37;73657.00;;;-144.65;46.56
5146;BME280;2591;48.144;15.152;2022-07-23T11:40:08;73620.34;;;-144.65;46.03
5146;BME280;2591;48.144;15.152;2022-07-23T11:42:39;73599.97;;;-144.65;45.28
5146;BME280;2591;48.144;15.152;2022-07-23T11:45:21;73534.75;;;-144.65;43.15
5146;BME280;2591;48.144;15.152;2022-07-23T11:47:49;73504.22;;;-144.65;43.41
5146;BME280;2591;48.144;15.152;2022-07-23T11:50:25;73526.63;;;-144.65;43.67
5146;BME280;2591;48.144;15.152;2022-07-23T11:52:55;73540.88;;;-144.65;43.57
5146;BME280;2591;48.144;15.152;2022-07-23T11:55:24;73595.88;;;-144.65;44.92
5146;BME280;2591;48.144;15.152;2022-07-23T11:57:53;73567.34;;;-144.65;43.15
5146;BME280;2591;48.144;15.152;2022-07-23T12:00:25;73506.25;;;-144.65;42.95
5146;BME280;2591;48.144;15.152;2022-07-23T12:02:57;73457.34;;;-144.65;44.33
5146;BME280;2591;48.144;15.152;2022-07-23T12:05:30;73396.22;;;-144.65;41.81
5146;BME280;2591;48.144;15.152;2022-07-23T12:08:01;73375.88;;;-144.65;42.11
5146;BME280;2591;48.144;15.152;2022-07-23T12:10:34;73365.69;;;-144.65;41.08
5146;BME280;2591;48.144;15.152;2022-07-23T12:13:10;73394.19;;;-144.65;39.83
5146;BME280;2591;48.144;15.152;2022-07-23T12:15:41;73408.47;;;-144.65;38.71
5146;BME280;2591;48.144;15.152;2022-07-23T12:18:12;73426.78;;;-144.65;41.01
5146;BME280;2591;48.144;15.152;2022-07-23T12:20:43;73408.47;;;-144.65;40.55
5146;BME280;2591;48.144;15.152;2022-07-23T12:23:16;73410.50;;;-144.65;39.54
5146;BME280;2591;48.144;15.152;2022-07-23T12:25:49;73443.09;;;-144.65;40.76
5146;BME280;2591;48.144;15.152;2022-07-23T12:28:21;73430.88;;;-144.65;38.90
5146;BME280;2591;48.144;15.152;2022-07-23T12:30:53;73430.88;;;-144.65;38.62
5146;BME280;2591;48.144;15.152;2022-07-23T12:33:24;73430.88;;;-144.65;37.85
5146;BME280;2591;48.144;15.152;2022-07-23T12:35:56;73465.50;;;-144.65;38.26
5146;BME280;2591;48.144;15.152;2022-07-23T12:38:28;73428.81;;;-144.65;38.07
5146;BME280;2591;48.144;15.152;2022-07-23T12:41:04;73390.13;;;-144.65;38.76
5146;BME280;2591;48.144;15.152;2022-07-23T12:43:35;73306.59;;;-144.65;37.19
5146;BME280;2591;48.144;15.152;2022-07-23T12:46:05;73308.63;;;-144.65;37.51
5146;BME280;2591;48.144;15.152;2022-07-23T12:48:36;73329.00;;;-144.65;36.59
5146;BME280;2591;48.144;15.152;2022-07-23T12:51:07;73400.31;;;-144.65;38.29
5146;BME280;2591;48.144;15.152;2022-07-23T12:53:46;73408.47;;;-144.65;39.32
5146;BME280;2591;48.144;15.152;2022-07-23T12:56:20;73335.13;;;-144.65;37.87
5146;BME280;2591;48.144;15.152;2022-07-23T12:58:52;73339.19;;;-144.65;38.47
5146;BME280;2591;48.144;15.152;2022-07-23T13:01:24;73335.13;;;-144.65;39.63
5146;BME280;2591;48.144;15.152;2022-07-23T13:03:57;73331.03;;;-144.65;38.09
5146;BME280;2591;48.144;15.152;2022-07-23T13:06:26;73359.56;;;-144.65;38.88
5146;BME280;2591;48.144;15.152;2022-07-23T13:08:59;73343.28;;;-144.65;39.00
5146;BME280;2591;48.144;15.152;2022-07-23T13:11:32;73331.03;;;-144.65;38.86
5146;BME280;2591;48.144;15.152;2022-07-23T13:14:01;73326.97;;;-144.65;39.14
5146;BME280;2591;48.144;15.152;2022-07-23T13:16:34;73322.91;;;-144.65;38.89